Time;durP1;ratioP1;P1;durP2;ratioP2;P2;SDS_P1;SDS_P2;PMS_P1;PMS_P2;Temp;Humidity;BMP_temperature;BMP_pressure;BME280_temperature;BME280_humidity;BME280_pressure;Samples;Min_cycle;Max_cycle;Signal;HPM_P1;HPM_P2
2021/09/27 00:00:25;;;;;;;;;;;;;;;22.74;63.09;100035.03;2080004;28;19924;-64
2021/09/27 00:01:26;;;;;;;;;;;;;;;22.75;63.15;100025.75;2078954;28;20450;-64
2021/09/27 00:02:27;;;;;;;;;;;;;;;22.75;63.06;100033.13;2075948;28;20236;-64
2021/09/27 00:03:28;;;;;;;;;;;;;;;22.74;63.10;100026.78;2074799;28;20311;-65
2021/09/27 00:04:28;;;;;;;;;;;;;;;22.75;63.02;100022.16;2081165;28;19917;-65
2021/09/27 00:05:29;;;;;;;;;;;;;;;22.75;63.06;100024.88;2083759;28;19913;-64
2021/09/27 00:06:29;;;;;;;;;;;;;;;22.74;62.98;100026.78;2080881;28;20149;-65
2021/09/27 00:07:29;;;;;;;;;;;;;;;22.74;63.16;100023.19;2084583;28;19912;-65
2021/09/27 00:08:30;;;;;;;;;;;;;;;22.74;63.08;100024.03;2075927;28;20210;-65
2021/09/27 00:09:33;;;;;;;;;;;;;;;22.74;63.12;100017.69;2077300;28;19940;-65
2021/09/27 00:10:38;;;;;;;;;;;;;;;22.74;62.99;100021.28;2085612;28;20310;-65
2021/09/27 00:11:39;;;;;;;;;;;;;;;22.74;63.06;100012.19;2086191;28;20395;-65
2021/09/27 00:12:40;;;;;;;;;;;;;;;22.74;63.08;100018.53;2069840;28;20501;-65
2021/09/27 00:13:43;;;;;;;;;;;;;;;22.74;63.14;100012.19;2075648;28;19963;-65
2021/09/27 00:14:43;;;;;;;;;;;;;;;22.74;63.20;100013.06;2085906;28;20073;-64
2021/09/27 00:15:48;;;;;;;;;;;;;;;22.75;63.07;100013.91;2081139;28;20289;-65
2021/09/27 00:16:48;;;;;;;;;;;;;;;22.73;63.21;100005.81;2088693;28;19908;-65
2021/09/27 00:17:48;;;;;;;;;;;;;;;22.74;63.25;100012.19;2092655;28;19908;-65
2021/09/27 00:18:49;;;;;;;;;;;;;;;22.74;63.12;100009.44;2085929;28;19916;-65
2021/09/27 00:19:49;;;;;;;;;;;;;;;22.74;63.04;100006.69;2093836;28;19908;-64
2021/09/27 00:20:54;;;;;;;;;;;;;;;22.73;63.19;100005.81;2089848;28;20390;-65
2021/09/27 00:21:55;;;;;;;;;;;;;;;22.74;63.17;100006.69;2079363;28;19913;-65
2021/09/27 00:22:56;;;;;;;;;;;;;;;22.73;63.06;100008.56;2085670;28;19948;-66
2021/09/27 00:23:57;;;;;;;;;;;;;;;22.73;63.25;100007.72;2084766;28;19924;-64
2021/09/27 00:24:57;;;;;;;;;;;;;;;22.73;63.19;100002.22;2086118;28;19905;-65
2021/09/27 00:25:58;;;;;;;;;;;;;;;22.73;63.08;100002.22;2080728;28;20217;-65
2021/09/27 00:26:58;;;;;;;;;;;;;;;22.73;63.24;100004.97;2080157;28;19951;-66
2021/09/27 00:27:58;;;;;;;;;;;;;;;22.72;63.08;99997.78;2084129;28;20588;-65
2021/09/27 00:28:59;;;;;;;;;;;;;;;22.73;63.14;99999.47;2087525;28;20294;-66
2021/09/27 00:30:00;;;;;;;;;;;;;;;22.72;63.18;99993.13;2089381;28;20304;-65
2021/09/27 00:31:00;;;;;;;;;;;;;;;22.72;63.08;99998.63;2082310;28;20332;-65
2021/09/27 00:32:01;;;;;;;;;;;;;;;22.72;63.19;99995.03;2084603;28;20014;-65
2021/09/27 00:33:01;;;;;;;;;;;;;;;22.72;63.07;99993.13;2085544;28;20403;-65
2021/09/27 00:34:01;;;;;;;;;;;;;;;22.72;63.18;99992.28;2083758;28;19909;-65
2021/09/27 00:35:03;;;;;;;;;;;;;;;22.72;63.13;99997.78;2082760;28;19924;-65
2021/09/27 00:36:03;;;;;;;;;;;;;;;22.71;63.24;99996.91;2085258;28;20339;-66
2021/09/27 00:37:03;;;;;;;;;;;;;;;22.72;63.29;99997.78;2083090;28;20263;-65
2021/09/27 00:38:04;;;;;;;;;;;;;;;22.72;63.20;99992.28;2079601;28;19948;-65
2021/09/27 00:39:06;;;;;;;;;;;;;;;22.72;63.15;99984.03;2078339;28;20392;-64
2021/09/27 00:40:07;;;;;;;;;;;;;;;22.72;63.18;99981.28;2077657;28;19931;-65
2021/09/27 00:41:10;;;;;;;;;;;;;;;22.71;63.02;99988.69;2085107;28;19952;-64
2021/09/27 00:42:10;;;;;;;;;;;;;;;22.72;63.17;99989.53;2085215;28;19905;-65
2021/09/27 00:43:12;;;;;;;;;;;;;;;22.71;63.19;99985.06;2076353;28;19901;-65
2021/09/27 00:44:12;;;;;;;;;;;;;;;22.72;63.15;99986.78;2069411;28;19920;-65
2021/09/27 00:45:13;;;;;;;;;;;;;;;22.71;63.03;99990.53;2071265;28;19964;-63
2021/09/27 00:46:16;;;;;;;;;;;;;;;22.71;63.16;99990.53;2077671;28;19909;-64
2021/09/27 00:47:17;;;;;;;;;;;;;;;22.71;63.14;99982.31;2085532;28;19912;-64
2021/09/27 00:48:17;;;;;;;;;;;;;;;22.71;63.10;99982.31;2085979;28;19940;-64
2021/09/27 00:49:18;;;;;;;;;;;;;;;22.70;63.20;99978.69;2080344;28;19975;-64
2021/09/27 00:50:20;;;;;;;;;;;;;;;22.71;63.12;99976.81;2085554;28;19917;-65
2021/09/27 00:51:24;;;;;;;;;;;;;;;22.71;63.24;99974.06;2086447;28;19962;-64
2021/09/27 00:52:25;;;;;;;;;;;;;;;22.71;63.08;99974.06;2078525;28;19916;-65
2021/09/27 00:53:29;;;;;;;;;;;;;;;22.69;63.29;99977.84;2069411;28;19917;-66
2021/09/27 00:54:32;;;;;;;;;;;;;;;22.71;63.12;99976.81;2078657;28;20232;-66
2021/09/27 00:55:33;;;;;;;;;;;;;;;22.70;63.11;99984.19;2078024;28;19975;-65
2021/09/27 00:56:41;;;;;;;;;;;;;;;22.71;63.21;99985.06;2076745;28;19909;-65
2021/09/27 00:57:42;;;;;;;;;;;;;;;22.71;63.29;99987.78;2077233;28;19920;-65
2021/09/27 00:58:44;;;;;;;;;;;;;;;22.69;63.20;99983.34;2068925;28;19910;-65
2021/09/27 00:59:49;;;;;;;;;;;;;;;22.69;63.25;99988.84;2074960;28;19971;-65
2021/09/27 01:00:50;;;;;;;;;;;;;;;22.71;63.20;99990.53;2082470;28;19955;-65
2021/09/27 01:01:51;;;;;;;;;;;;;;;22.70;63.13;99984.19;2085561;28;19909;-64
2021/09/27 01:02:52;;;;;;;;;;;;;;;22.70;63.11;99992.44;2083229;28;20562;-64
2021/09/27 01:03:53;;;;;;;;;;;;;;;22.69;63.18;99983.34;2083242;28;20472;-64
2021/09/27 01:04:53;;;;;;;;;;;;;;;22.71;63.22;99990.53;2085024;28;19909;-64
2021/09/27 01:06:32;;;;;;;;;;;;;;;22.69;63.27;99993.50;2084040;28;19915;-65
2021/09/27 01:07:49;;;;;;;;;;;;;;;22.70;63.13;99986.94;2053650;28;20131;-65
2021/09/27 01:09:04;;;;;;;;;;;;;;;22.69;63.33;99991.59;2052791;28;19960;-66
2021/09/27 01:10:14;;;;;;;;;;;;;;;22.68;63.17;99980.75;2052010;28;20631;-64
2021/09/27 01:11:17;;;;;;;;;;;;;;;22.68;63.15;99978.91;2049486;28;19985;-66
2021/09/27 01:12:20;;;;;;;;;;;;;;;22.68;63.30;99976.16;2052886;28;19917;-64
2021/09/27 01:13:33;;;;;;;;;;;;;;;22.69;63.12;99974.25;2068254;28;19920;-65
2021/09/27 01:14:34;;;;;;;;;;;;;;;22.68;63.30;99973.41;2086328;28;19916;-65
2021/09/27 01:15:52;;;;;;;;;;;;;;;22.68;63.21;99970.66;2085667;28;19908;-65
2021/09/27 01:16:56;;;;;;;;;;;;;;;22.67;63.14;99974.41;2085944;28;19908;-66
2021/09/27 01:18:14;;;;;;;;;;;;;;;22.68;63.17;99970.66;2077494;28;20007;-65
2021/09/27 01:19:30;;;;;;;;;;;;;;;22.68;63.19;99970.66;2070246;28;20398;-65
2021/09/27 01:20:49;;;;;;;;;;;;;;;22.67;63.14;99963.44;2081042;28;19921;-65
2021/09/27 01:21:55;;;;;;;;;;;;;;;22.67;63.34;99970.81;2085049;28;19913;-65
2021/09/27 01:23:21;;;;;;;;;;;;;;;22.67;63.38;99971.66;2085400;28;19924;-65
2021/09/27 01:24:33;;;;;;;;;;;;;;;22.67;63.37;99968.94;2089463;28;19958;-65
2021/09/27 01:25:53;;;;;;;;;;;;;;;22.67;63.38;99973.56;2084626;28;19916;-64
2021/09/27 01:27:17;;;;;;;;;;;;;;;22.67;63.40;99977.16;2082902;28;19912;-65
2021/09/27 01:28:20;;;;;;;;;;;;;;;22.68;63.42;99980.75;2083289;28;19919;-65
2021/09/27 01:29:23;;;;;;;;;;;;;;;22.67;63.37;99970.81;2083946;28;19909;-65
2021/09/27 01:30:42;;;;;;;;;;;;;;;22.67;63.39;99974.41;2082243;28;19979;-65
2021/09/27 01:31:51;;;;;;;;;;;;;;;22.67;63.44;99979.06;2079955;28;19972;-64
2021/09/27 01:32:58;;;;;;;;;;;;;;;22.67;63.37;99974.41;2087416;28;19924;-65
2021/09/27 01:34:16;;;;;;;;;;;;;;;22.67;63.24;99973.56;2087018;28;19920;-65
2021/09/27 01:35:23;;;;;;;;;;;;;;;22.66;63.41;99967.22;2079623;28;19909;-64
2021/09/27 01:36:29;;;;;;;;;;;;;;;22.68;63.22;99969.78;2083097;28;20359;-64
2021/09/27 01:37:55;;;;;;;;;;;;;;;22.66;63.39;99961.72;2085693;28;20192;-64
2021/09/27 01:39:07;;;;;;;;;;;;;;;22.67;63.29;99963.44;2057733;28;19917;-64
2021/09/27 01:40:14;;;;;;;;;;;;;;;22.66;63.40;99969.97;2083523;28;19913;-65
2021/09/27 01:41:32;;;;;;;;;;;;;;;22.67;63.32;99968.94;2086613;28;19928;-65
2021/09/27 01:42:47;;;;;;;;;;;;;;;22.66;63.42;99969.97;2088191;28;20390;-64
2021/09/27 01:44:13;;;;;;;;;;;;;;;22.67;63.30;99971.66;2078196;28;19920;-65
2021/09/27 01:45:20;;;;;;;;;;;;;;;22.67;63.33;99968.06;2080621;28;19912;-64
2021/09/27 01:46:35;;;;;;;;;;;;;;;22.66;63.37;99961.72;2085556;28;19947;-64
2021/09/27 01:47:42;;;;;;;;;;;;;;;22.66;63.30;99964.47;2083363;28;19912;-65
2021/09/27 01:49:08;;;;;;;;;;;;;;;22.66;63.36;99956.22;2085877;28;20014;-64
2021/09/27 01:50:13;;;;;;;;;;;;;;;22.65;63.50;99957.25;2077343;28;19959;-64
2021/09/27 01:51:28;;;;;;;;;;;;;;;22.67;63.54;99952.44;2077439;28;19920;-65
2021/09/27 01:52:31;;;;;;;;;;;;;;;22.66;63.57;99950.75;2081771;28;20129;-65
2021/09/27 01:53:40;;;;;;;;;;;;;;;22.65;63.44;99949.00;2086472;28;19909;-65
2021/09/27 01:54:45;;;;;;;;;;;;;;;22.65;63.61;99943.50;2085456;28;19948;-64
2021/09/27 01:55:48;;;;;;;;;;;;;;;22.65;63.57;99946.25;2087409;28;19908;-65
2021/09/27 01:56:52;;;;;;;;;;;;;;;22.65;63.56;99946.25;2085517;28;19919;-65
2021/09/27 01:58:04;;;;;;;;;;;;;;;22.64;63.62;99941.81;2076145;28;19916;-65
2021/09/27 01:59:16;;;;;;;;;;;;;;;22.66;63.67;99945.25;2078391;28;19920;-65
2021/09/27 02:00:26;;;;;;;;;;;;;;;22.66;63.52;99944.38;2080205;28;19927;-65
2021/09/27 02:01:53;;;;;;;;;;;;;;;22.65;63.44;99938.03;2084230;28;19927;-64
2021/09/27 02:02:59;;;;;;;;;;;;;;;22.65;63.70;99942.66;2078609;28;19943;-65
2021/09/27 02:04:04;;;;;;;;;;;;;;;22.65;63.47;99931.66;2079426;28;20368;-66
2021/09/27 02:05:05;;;;;;;;;;;;;;;22.65;63.65;99938.03;2084984;28;19908;-66
2021/09/27 02:06:05;;;;;;;;;;;;;;;22.65;63.66;99940.75;2084234;28;19947;-65
2021/09/27 02:07:06;;;;;;;;;;;;;;;22.65;63.74;99935.28;2085341;28;19916;-65
2021/09/27 02:08:18;;;;;;;;;;;;;;;22.66;63.71;99936.13;2082544;28;19909;-65
2021/09/27 02:09:26;;;;;;;;;;;;;;;22.65;63.61;99924.28;2085028;28;20257;-65
2021/09/27 02:10:33;;;;;;;;;;;;;;;22.65;63.78;99932.53;2084340;28;20403;-64
2021/09/27 02:11:35;;;;;;;;;;;;;;;22.65;63.56;99926.19;2084386;28;19948;-65
2021/09/27 02:12:42;;;;;;;;;;;;;;;22.65;63.58;99929.78;2083421;28;19942;-64
2021/09/27 02:14:12;;;;;;;;;;;;;;;22.64;63.49;99930.81;2085337;28;19974;-65
2021/09/27 02:15:24;;;;;;;;;;;;;;;22.65;63.77;99938.03;2054400;28;19917;-65
2021/09/27 02:16:27;;;;;;;;;;;;;;;22.65;63.78;99942.66;2084360;28;20117;-65
2021/09/27 02:17:33;;;;;;;;;;;;;;;22.65;63.64;99938.03;2085498;28;19953;-65
2021/09/27 02:18:40;;;;;;;;;;;;;;;22.64;63.83;99947.31;2081616;28;19908;-65
2021/09/27 02:19:59;;;;;;;;;;;;;;;22.65;63.78;99938.03;2083968;28;19904;-64
2021/09/27 02:21:20;;;;;;;;;;;;;;;22.65;63.69;99943.50;2082526;28;19908;-65
2021/09/27 02:22:29;;;;;;;;;;;;;;;22.64;63.64;99930.81;2090996;28;20429;-65
2021/09/27 02:23:32;;;;;;;;;;;;;;;22.64;63.67;99932.72;2084788;28;19915;-65
2021/09/27 02:24:41;;;;;;;;;;;;;;;22.64;63.74;99935.47;2074443;28;20391;-65
2021/09/27 02:25:43;;;;;;;;;;;;;;;22.64;63.56;99928.06;2069179;28;19909;-65
2021/09/27 02:26:45;;;;;;;;;;;;;;;22.64;63.68;99924.47;2083335;28;19913;-64
2021/09/27 02:27:47;;;;;;;;;;;;;;;22.63;63.73;99918.09;2084104;28;20046;-64
2021/09/27 02:28:48;;;;;;;;;;;;;;;22.63;63.74;99915.34;2086517;28;19954;-64
2021/09/27 02:29:49;;;;;;;;;;;;;;;22.62;63.67;99916.41;2075667;28;19916;-65
2021/09/27 02:31:08;;;;;;;;;;;;;;;22.62;63.49;99908.16;2075899;28;19913;-64
2021/09/27 02:32:08;;;;;;;;;;;;;;;22.62;63.61;99910.91;2083256;28;19909;-65
2021/09/27 02:33:14;;;;;;;;;;;;;;;22.63;63.63;99917.25;2082518;28;20112;-64
2021/09/27 02:34:37;;;;;;;;;;;;;;;22.62;63.53;99910.06;2085728;28;19965;-64
2021/09/27 02:35:42;;;;;;;;;;;;;;;22.62;63.74;99916.41;2075851;28;20264;-66
2021/09/27 02:36:48;;;;;;;;;;;;;;;22.62;63.65;99916.41;2084027;28;20004;-64
2021/09/27 02:38:02;;;;;;;;;;;;;;;22.62;63.76;99918.31;2084945;28;19912;-65
2021/09/27 02:39:02;;;;;;;;;;;;;;;22.62;63.85;99913.66;2083857;28;20395;-64
2021/09/27 02:40:11;;;;;;;;;;;;;;;22.62;63.73;99916.41;2085511;28;19975;-65
2021/09/27 02:41:30;;;;;;;;;;;;;;;22.62;63.88;99912.81;2075565;28;19909;-65
2021/09/27 02:42:30;;;;;;;;;;;;;;;22.61;63.70;99909.22;2075892;28;20343;-66
2021/09/27 02:43:30;;;;;;;;;;;;;;;22.61;63.78;99914.69;2085639;28;19935;-66
2021/09/27 02:44:30;;;;;;;;;;;;;;;22.62;63.92;99910.06;2081931;28;19944;-66
2021/09/27 02:45:31;;;;;;;;;;;;;;;22.62;63.80;99905.41;2085235;28;19920;-65
2021/09/27 02:46:32;;;;;;;;;;;;;;;22.61;63.74;99903.72;2077204;28;19916;-65
2021/09/27 02:47:41;;;;;;;;;;;;;;;22.61;63.95;99909.22;2076055;28;20012;-66
2021/09/27 02:48:53;;;;;;;;;;;;;;;22.60;63.79;99907.47;2084919;28;20055;-66
2021/09/27 02:49:57;;;;;;;;;;;;;;;22.61;63.79;99908.31;2078667;28;20147;-66
2021/09/27 02:50:57;;;;;;;;;;;;;;;22.61;63.81;99903.72;2082228;28;20492;-66
2021/09/27 02:51:59;;;;;;;;;;;;;;;22.61;64.02;99909.22;2083246;28;20063;-66
2021/09/27 02:53:00;;;;;;;;;;;;;;;22.62;63.94;99912.81;2085177;28;19982;-65
2021/09/27 02:54:00;;;;;;;;;;;;;;;22.60;63.90;99910.22;2084067;28;20002;-67
2021/09/27 02:55:02;;;;;;;;;;;;;;;22.60;64.00;99904.72;2085688;28;19908;-67
2021/09/27 02:56:15;;;;;;;;;;;;;;;22.61;64.00;99905.56;2084017;28;19924;-66
2021/09/27 02:57:34;;;;;;;;;;;;;;;22.59;63.77;99905.78;2070752;28;20308;-66
2021/09/27 02:58:40;;;;;;;;;;;;;;;22.62;63.97;99915.56;2077257;28;20302;-67
2021/09/27 02:59:43;;;;;;;;;;;;;;;22.61;63.89;99908.31;2083266;28;19908;-65
2021/09/27 03:01:05;;;;;;;;;;;;;;;22.61;64.02;99908.31;2080269;28;19913;-66
2021/09/27 03:02:08;;;;;;;;;;;;;;;22.61;63.86;99908.31;2082891;28;19913;-65
2021/09/27 03:03:25;;;;;;;;;;;;;;;22.61;64.01;99906.47;2085605;28;20519;-64
2021/09/27 03:04:25;;;;;;;;;;;;;;;22.60;64.01;99901.13;2082891;28;19913;-65
2021/09/27 03:05:32;;;;;;;;;;;;;;;22.61;63.97;99905.56;2083184;28;19985;-64
2021/09/27 03:06:49;;;;;;;;;;;;;;;22.60;63.83;99901.13;2080072;28;19913;-64
2021/09/27 03:07:49;;;;;;;;;;;;;;;22.59;64.09;99905.78;2078179;28;19913;-66
2021/09/27 03:09:15;;;;;;;;;;;;;;;22.60;63.96;99901.97;2084236;28;20627;-64
2021/09/27 03:10:23;;;;;;;;;;;;;;;22.60;64.08;99901.97;2070187;28;20007;-64
2021/09/27 03:11:26;;;;;;;;;;;;;;;22.59;63.94;99900.28;2077423;28;19909;-64
2021/09/27 03:12:26;;;;;;;;;;;;;;;22.59;63.94;99896.69;2085623;28;19901;-65
2021/09/27 03:13:27;;;;;;;;;;;;;;;22.59;64.03;99896.69;2083659;28;20328;-64
2021/09/27 03:14:33;;;;;;;;;;;;;;;22.59;63.86;99900.28;2084191;28;19916;-65
2021/09/27 03:15:36;;;;;;;;;;;;;;;22.59;63.89;99893.94;2083924;28;19912;-64
2021/09/27 03:16:37;;;;;;;;;;;;;;;22.60;63.87;99901.97;2084783;28;20391;-64
2021/09/27 03:17:45;;;;;;;;;;;;;;;22.58;64.07;99893.06;2085331;28;20739;-65
2021/09/27 03:18:56;;;;;;;;;;;;;;;22.58;64.08;99903.19;2081557;28;20387;-65
2021/09/27 03:20:12;;;;;;;;;;;;;;;22.59;64.00;99900.28;2083519;28;19909;-64
2021/09/27 03:21:12;;;;;;;;;;;;;;;22.58;64.03;99898.56;2083575;28;19958;-63
2021/09/27 03:22:31;;;;;;;;;;;;;;;22.58;64.14;99898.56;2084203;28;19909;-64
2021/09/27 03:23:38;;;;;;;;;;;;;;;22.59;63.99;99896.69;2082879;28;20379;-66
2021/09/27 03:24:56;;;;;;;;;;;;;;;22.59;64.08;99899.44;2084122;28;20308;-65
2021/09/27 03:26:06;;;;;;;;;;;;;;;22.58;64.05;99898.56;2077728;28;20307;-65
2021/09/27 03:27:22;;;;;;;;;;;;;;;22.58;63.97;99898.56;2083284;28;19909;-65
2021/09/27 03:28:28;;;;;;;;;;;;;;;22.58;64.13;99893.06;2082583;28;19909;-64
2021/09/27 03:29:36;;;;;;;;;;;;;;;22.58;64.09;99887.56;2084313;28;19947;-64
2021/09/27 03:30:55;;;;;;;;;;;;;;;22.58;64.08;99893.06;2085133;28;19909;-64
2021/09/27 03:32:04;;;;;;;;;;;;;;;22.58;64.13;99893.06;2082175;28;20285;-64
2021/09/27 03:33:10;;;;;;;;;;;;;;;22.58;63.92;99898.56;2087203;28;19912;-65
2021/09/27 03:34:10;;;;;;;;;;;;;;;22.57;63.91;99891.34;2090295;28;20512;-64
2021/09/27 03:35:34;;;;;;;;;;;;;;;22.57;63.99;99896.84;2084518;28;20019;-64
2021/09/27 03:36:43;;;;;;;;;;;;;;;22.58;63.99;99898.56;2076524;28;20419;-64
2021/09/27 03:38:00;;;;;;;;;;;;;;;22.58;63.93;99893.06;2090266;28;19948;-64
2021/09/27 03:39:19;;;;;;;;;;;;;;;22.57;64.13;99896.84;2083955;28;19909;-64
2021/09/27 03:40:35;;;;;;;;;;;;;;;22.57;64.07;99902.34;2082723;28;19908;-65
2021/09/27 03:41:39;;;;;;;;;;;;;;;22.57;64.22;99891.34;2084335;28;19908;-64
2021/09/27 03:42:52;;;;;;;;;;;;;;;22.57;64.07;99891.34;2085056;28;20114;-65
2021/09/27 03:44:11;;;;;;;;;;;;;;;22.57;64.00;99894.09;2081334;28;19913;-65
2021/09/27 03:45:14;;;;;;;;;;;;;;;22.56;64.05;99883.28;2085376;28;19916;-64
2021/09/27 03:46:17;;;;;;;;;;;;;;;22.57;64.03;99888.59;2085462;28;19904;-64
2021/09/27 03:47:27;;;;;;;;;;;;;;;22.56;63.97;99888.78;2086568;28;20084;-64
2021/09/27 03:48:40;;;;;;;;;;;;;;;22.57;64.13;99885.88;2082953;28;19924;-64
2021/09/27 03:49:40;;;;;;;;;;;;;;;22.55;64.14;99882.44;2083674;28;19952;-64
2021/09/27 03:50:40;;;;;;;;;;;;;;;22.56;64.19;99884.13;2083287;28;19913;-64
2021/09/27 03:51:52;;;;;;;;;;;;;;;22.56;64.12;99889.63;2084679;28;19909;-65
2021/09/27 03:53:05;;;;;;;;;;;;;;;22.55;64.15;99887.94;2076905;28;19913;-64
2021/09/27 03:54:15;;;;;;;;;;;;;;;22.55;64.00;99885.19;2076391;28;19919;-64
2021/09/27 03:55:15;;;;;;;;;;;;;;;22.56;63.89;99881.38;2086335;28;19908;-64
2021/09/27 03:56:25;;;;;;;;;;;;;;;22.55;64.03;99876.94;2082358;28;19913;-64
2021/09/27 03:57:43;;;;;;;;;;;;;;;22.55;64.22;99885.19;2083311;28;19999;-65
2021/09/27 03:58:50;;;;;;;;;;;;;;;22.56;64.08;99880.53;2089842;28;20558;-64
2021/09/27 04:00:00;;;;;;;;;;;;;;;22.55;64.21;99879.69;2085210;28;19965;-64
2021/09/27 04:01:00;;;;;;;;;;;;;;;22.55;64.09;99885.19;2079120;28;19959;-64
2021/09/27 04:02:19;;;;;;;;;;;;;;;22.57;64.04;99883.13;2081233;28;19957;-65
2021/09/27 04:03:33;;;;;;;;;;;;;;;22.55;64.13;99876.94;2090777;28;19905;-64
2021/09/27 04:04:34;;;;;;;;;;;;;;;22.55;63.99;99881.59;2082559;28;19923;-64
2021/09/27 04:05:37;;;;;;;;;;;;;;;22.55;64.13;99879.69;2077132;28;19905;-64
2021/09/27 04:06:58;;;;;;;;;;;;;;;22.55;64.17;99882.44;2070557;28;20242;-65
2021/09/27 04:08:08;;;;;;;;;;;;;;;22.55;64.07;99882.44;2084012;28;20411;-65
2021/09/27 04:09:08;;;;;;;;;;;;;;;22.55;64.23;99878.84;2083811;28;19909;-65
2021/09/27 04:10:17;;;;;;;;;;;;;;;22.54;64.21;99877.97;2085225;28;19915;-65
2021/09/27 04:11:23;;;;;;;;;;;;;;;22.55;63.90;99887.94;2084633;28;19945;-64
2021/09/27 04:12:32;;;;;;;;;;;;;;;22.54;64.24;99880.72;2086018;28;19915;-64
2021/09/27 04:13:39;;;;;;;;;;;;;;;22.55;64.06;99878.84;2081744;28;19916;-64
2021/09/27 04:15:00;;;;;;;;;;;;;;;22.54;64.17;99880.72;2081341;28;19944;-64
2021/09/27 04:16:12;;;;;;;;;;;;;;;22.54;64.15;99886.22;2087086;28;20353;-66
2021/09/27 04:17:13;;;;;;;;;;;;;;;22.54;63.97;99885.34;2088964;28;19912;-65
2021/09/27 04:18:32;;;;;;;;;;;;;;;22.54;64.06;99883.47;2082957;28;20429;-65
2021/09/27 04:19:40;;;;;;;;;;;;;;;22.54;64.25;99883.47;2085182;28;19917;-65
2021/09/27 04:20:41;;;;;;;;;;;;;;;22.54;63.99;99886.22;2089942;28;21062;-65
2021/09/27 04:21:44;;;;;;;;;;;;;;;22.54;64.17;99880.72;2082786;28;20452;-65
2021/09/27 04:23:03;;;;;;;;;;;;;;;22.54;64.05;99877.09;2076975;28;19967;-65
2021/09/27 04:24:15;;;;;;;;;;;;;;;22.53;64.15;99884.50;2093470;28;20270;-65
2021/09/27 04:25:22;;;;;;;;;;;;;;;22.54;64.24;99888.09;2086828;28;19912;-65
2021/09/27 04:26:22;;;;;;;;;;;;;;;22.54;64.22;99880.72;2084420;28;19932;-65
2021/09/27 04:27:25;;;;;;;;;;;;;;;22.54;64.09;99886.22;2083159;28;19916;-65
2021/09/27 04:28:37;;;;;;;;;;;;;;;22.54;64.13;99888.09;2084411;28;20244;-65
2021/09/27 04:29:55;;;;;;;;;;;;;;;22.52;64.30;99891.03;2074190;28;19924;-66
2021/09/27 04:31:02;;;;;;;;;;;;;;;22.54;64.22;99893.59;2074449;28;20230;-65
2021/09/27 04:32:31;;;;;;;;;;;;;;;22.53;64.25;99890.00;2080152;28;19919;-65
2021/09/27 04:33:40;;;;;;;;;;;;;;;22.53;64.19;99889.13;2075538;28;19916;-65
2021/09/27 04:34:55;;;;;;;;;;;;;;;22.53;64.24;99890.00;2086523;28;20388;-65
2021/09/27 04:36:14;;;;;;;;;;;;;;;22.53;64.23;99890.00;2075139;28;20182;-65
2021/09/27 04:37:17;;;;;;;;;;;;;;;22.52;64.07;99885.53;2075262;28;19935;-65
2021/09/27 04:38:18;;;;;;;;;;;;;;;22.53;64.11;99890.00;2079859;28;19948;-65
2021/09/27 04:39:20;;;;;;;;;;;;;;;22.53;64.05;99887.25;2079465;28;19913;-65
2021/09/27 04:40:33;;;;;;;;;;;;;;;22.52;64.25;99891.03;2079606;28;19907;-64
2021/09/27 04:41:36;;;;;;;;;;;;;;;22.52;64.24;99888.28;2085199;28;19917;-65
2021/09/27 04:42:43;;;;;;;;;;;;;;;22.52;64.17;99891.03;2075501;28;19988;-65
2021/09/27 04:43:56;;;;;;;;;;;;;;;22.52;64.14;99896.53;2075233;28;19960;-66
2021/09/27 04:45:11;;;;;;;;;;;;;;;22.53;64.25;99895.47;2082427;28;19946;-65
2021/09/27 04:46:18;;;;;;;;;;;;;;;22.52;64.06;99891.03;2085077;28;20173;-65
2021/09/27 04:47:19;;;;;;;;;;;;;;;22.52;64.19;99888.28;2085049;28;19951;-65
2021/09/27 04:48:19;;;;;;;;;;;;;;;22.52;64.08;99893.78;2087319;28;20370;-64
2021/09/27 04:49:25;;;;;;;;;;;;;;;22.52;64.07;99891.03;2085145;28;20571;-64
2021/09/27 04:50:25;;;;;;;;;;;;;;;22.52;64.17;99896.53;2080779;28;20159;-65
2021/09/27 04:51:29;;;;;;;;;;;;;;;22.52;64.08;99891.03;2083744;28;19909;-65
2021/09/27 04:52:44;;;;;;;;;;;;;;;22.53;64.05;99895.47;2084596;28;19908;-65
2021/09/27 04:54:07;;;;;;;;;;;;;;;22.51;64.23;99900.28;2083894;28;19932;-65
2021/09/27 04:55:24;;;;;;;;;;;;;;;22.52;63.95;99898.44;2078478;28;19913;-64
2021/09/27 04:56:32;;;;;;;;;;;;;;;22.51;64.07;99897.53;2084455;28;20081;-65
2021/09/27 04:57:50;;;;;;;;;;;;;;;22.52;64.18;99899.28;2084509;28;19913;-65
2021/09/27 04:59:09;;;;;;;;;;;;;;;22.52;64.08;99899.28;2085349;28;20354;-65
2021/09/27 05:00:23;;;;;;;;;;;;;;;22.51;64.09;99892.06;2076967;28;19987;-65
2021/09/27 05:01:34;;;;;;;;;;;;;;;22.52;64.22;99893.78;2078849;28;19916;-65
2021/09/27 05:02:49;;;;;;;;;;;;;;;22.52;64.35;99896.53;2087093;28;19966;-66
2021/09/27 05:04:05;;;;;;;;;;;;;;;22.51;64.32;99903.03;2085422;28;19908;-64
2021/09/27 05:05:21;;;;;;;;;;;;;;;22.51;64.08;99897.53;2080448;28;19909;-65
2021/09/27 05:06:34;;;;;;;;;;;;;;;22.51;64.28;99892.06;2077197;28;20146;-65
2021/09/27 05:07:53;;;;;;;;;;;;;;;22.51;64.10;99902.19;2078677;28;19968;-65
2021/09/27 05:08:56;;;;;;;;;;;;;;;22.50;64.22;99890.34;2074012;28;19909;-65
2021/09/27 05:10:09;;;;;;;;;;;;;;;22.50;64.11;99895.84;2083037;28;19915;-65
2021/09/27 05:11:12;;;;;;;;;;;;;;;22.50;64.25;99898.59;2085648;28;19956;-65
2021/09/27 05:12:21;;;;;;;;;;;;;;;22.51;64.29;99897.53;2084131;28;19908;-64
2021/09/27 05:13:24;;;;;;;;;;;;;;;22.50;64.19;99895.84;2074506;28;19917;-64
2021/09/27 05:14:27;;;;;;;;;;;;;;;22.50;64.24;99895.84;2075377;28;19925;-64
2021/09/27 05:15:56;;;;;;;;;;;;;;;22.50;64.13;99898.59;2081819;28;20011;-64
2021/09/27 05:17:08;;;;;;;;;;;;;;;22.50;64.31;99895.00;2084607;28;19913;-63
2021/09/27 05:18:15;;;;;;;;;;;;;;;22.49;64.29;99894.16;2081010;28;20611;-66
2021/09/27 05:19:30;;;;;;;;;;;;;;;22.50;64.11;99895.84;2074849;28;20728;-65
2021/09/27 05:20:57;;;;;;;;;;;;;;;22.50;64.19;99887.59;2071325;28;19919;-65
2021/09/27 05:22:26;;;;;;;;;;;;;;;22.52;64.20;99891.03;2071744;28;19986;-66
2021/09/27 05:23:27;;;;;;;;;;;;;;;22.51;64.11;99882.97;2065395;28;19913;-66
2021/09/27 05:24:31;;;;;;;;;;;;;;;22.52;64.19;99887.44;2076569;28;19921;-65
2021/09/27 05:25:40;;;;;;;;;;;;;;;22.51;64.03;99881.06;2069567;28;19913;-66
2021/09/27 05:26:59;;;;;;;;;;;;;;;22.52;64.25;99893.78;2071697;28;20506;-65
2021/09/27 05:28:08;;;;;;;;;;;;;;;22.52;64.15;99888.28;2072403;28;19917;-65
2021/09/27 05:29:14;;;;;;;;;;;;;;;22.50;64.11;99884.84;2076181;28;19952;-65
2021/09/27 05:30:30;;;;;;;;;;;;;;;22.51;64.17;99897.53;2076943;28;19916;-65
2021/09/27 05:31:42;;;;;;;;;;;;;;;22.51;64.13;99896.69;2076548;28;20350;-70
2021/09/27 05:32:52;;;;;;;;;;;;;;;22.51;64.00;99903.03;2076534;28;19913;-64
2021/09/27 05:34:11;;;;;;;;;;;;;;;22.52;64.18;99906.66;2084833;28;19912;-65
2021/09/27 05:35:16;;;;;;;;;;;;;;;22.54;64.00;99901.81;2074199;28;20276;-64
2021/09/27 05:36:35;;;;;;;;;;;;;;;22.52;64.02;99909.41;2075142;28;19909;-64
2021/09/27 05:37:54;;;;;;;;;;;;;;;22.51;64.12;99897.53;2077277;28;19955;-65
2021/09/27 05:39:03;;;;;;;;;;;;;;;22.52;63.97;99903.91;2075488;28;19913;-65
2021/09/27 05:40:04;;;;;;;;;;;;;;;22.51;64.01;99903.03;2077143;28;20150;-65
2021/09/27 05:41:04;;;;;;;;;;;;;;;22.51;64.05;99908.53;2076143;28;19904;-69
2021/09/27 05:42:13;;;;;;;;;;;;;;;22.50;64.10;99912.31;2067720;28;19928;-65
2021/09/27 05:43:13;;;;;;;;;;;;;;;22.51;64.10;99914.03;2066304;28;20022;-70
2021/09/27 05:44:24;;;;;;;;;;;;;;;22.51;64.07;99914.03;2079702;28;19970;-66
2021/09/27 05:45:41;;;;;;;;;;;;;;;22.51;64.07;99914.03;2065412;28;19925;-64
2021/09/27 05:46:54;;;;;;;;;;;;;;;22.51;64.21;99914.03;2071154;28;19916;-66
2021/09/27 05:47:54;;;;;;;;;;;;;;;22.52;64.13;99903.91;2077762;28;20150;-67
2021/09/27 05:48:54;;;;;;;;;;;;;;;22.53;64.17;99911.97;2072728;28;19923;-67
2021/09/27 05:50:01;;;;;;;;;;;;;;;22.55;64.22;99907.16;2077188;28;19919;-66
2021/09/27 05:51:03;;;;;;;;;;;;;;;22.55;64.20;99906.31;2075442;28;20182;-66
2021/09/27 05:52:09;;;;;;;;;;;;;;;22.54;64.25;99908.19;2073411;28;19970;-65
2021/09/27 05:53:29;;;;;;;;;;;;;;;22.55;64.05;99906.31;2076093;28;19916;-67